Time;durP1;ratioP1;P1;durP2;ratioP2;P2;SDS_P1;SDS_P2;PMS_P1;PMS_P2;Temp;Humidity;BMP_temperature;BMP_pressure;BME280_temperature;BME280_humidity;BME280_pressure;Samples;Min_cycle;Max_cycle;Signal;HPM_P1;HPM_P2
2021/11/01 00:02:02;;;;;;;19.30;3.80;;;10.90;99.90;;;;;;5120123;28;20040;-71
2021/11/01 00:04:28;;;;;;;13.05;3.33;;;10.90;99.90;;;;;;5118968;28;20043;-71
2021/11/01 00:06:54;;;;;;;25.13;5.15;;;10.90;99.90;;;;;;5118815;28;20096;-71
2021/11/01 00:09:20;;;;;;;21.98;3.80;;;10.80;99.90;;;;;;5118579;28;20051;-71
2021/11/01 00:11:45;;;;;;;23.30;4.78;;;10.80;99.90;;;;;;5119056;28;20036;-71
2021/11/01 00:14:11;;;;;;;24.63;4.38;;;10.80;99.90;;;;;;5102257;28;20168;-71
2021/11/01 00:16:36;;;;;;;28.50;4.45;;;10.80;99.90;;;;;;5120450;27;20096;-71
2021/11/01 00:19:03;;;;;;;25.90;4.50;;;10.80;99.90;;;;;;5118734;28;20484;-71
2021/11/01 00:21:29;;;;;;;20.33;4.75;;;10.80;99.90;;;;;;5118870;28;20051;-71
2021/11/01 00:23:54;;;;;;;18.17;3.97;;;10.80;99.90;;;;;;5120647;28;20043;-71
2021/11/01 00:26:20;;;;;;;25.42;4.20;;;10.70;99.90;;;;;;5120235;28;20031;-71
2021/11/01 00:28:48;;;;;;;21.85;4.43;;;10.70;99.90;;;;;;5119793;27;20039;-71
2021/11/01 00:31:15;;;;;;;19.77;4.13;;;10.70;99.90;;;;;;5119911;27;20381;-71
2021/11/01 00:33:41;;;;;;;25.40;4.35;;;10.70;99.90;;;;;;5119858;27;20035;-71
2021/11/01 00:36:07;;;;;;;26.10;5.40;;;10.70;99.90;;;;;;5118495;28;20039;-71
2021/11/01 00:38:33;;;;;;;21.15;3.95;;;10.70;99.90;;;;;;5118468;28;20050;-71
2021/11/01 00:40:59;;;;;;;30.38;4.65;;;10.60;99.90;;;;;;5120171;27;20078;-71
2021/11/01 00:43:25;;;;;;;20.83;4.13;;;10.70;99.90;;;;;;5120091;28;20043;-71
2021/11/01 00:45:51;;;;;;;16.92;4.28;;;10.70;99.90;;;;;;5114414;28;20031;-71
2021/11/01 00:48:17;;;;;;;27.50;3.97;;;10.70;99.90;;;;;;5116861;28;20447;-71
2021/11/01 00:50:44;;;;;;;19.60;3.95;;;10.60;99.90;;;;;;5116088;28;20506;-71
2021/11/01 00:53:10;;;;;;;18.67;4.22;;;10.60;99.90;;;;;;5116508;28;20031;-71
2021/11/01 00:55:47;;;;;;;21.20;4.05;;;10.60;99.90;;;;;;5116427;28;20500;-71
2021/11/01 00:58:13;;;;;;;22.27;4.25;;;10.60;99.90;;;;;;5116685;28;20468;-71
2021/11/01 01:00:39;;;;;;;18.35;3.92;;;10.60;99.90;;;;;;5115281;28;20047;-71
2021/11/01 01:03:04;;;;;;;16.23;3.22;;;10.50;99.90;;;;;;5116126;28;20443;-71
2021/11/01 01:05:30;;;;;;;17.23;4.38;;;10.60;99.90;;;;;;5115488;28;20044;-71
2021/11/01 01:07:56;;;;;;;23.73;4.65;;;10.50;99.90;;;;;;5097872;28;20040;-71
2021/11/01 01:10:21;;;;;;;24.23;5.53;;;10.50;99.90;;;;;;5115503;28;20079;-71
2021/11/01 01:12:48;;;;;;;26.23;4.90;;;10.50;99.90;;;;;;5114797;28;20138;-71
2021/11/01 01:15:20;;;;;;;30.85;5.95;;;10.50;99.90;;;;;;5116049;28;20052;-71
2021/11/01 01:17:47;;;;;;;18.80;3.90;;;10.50;99.90;;;;;;5115922;28;20062;-71
2021/11/01 01:20:15;;;;;;;20.23;3.63;;;10.40;99.90;;;;;;5114408;28;20096;-71
2021/11/01 01:22:43;;;;;;;20.48;3.95;;;10.40;99.90;;;;;;5116088;27;20044;-71
2021/11/01 01:25:25;;;;;;;21.90;3.92;;;10.40;99.90;;;;;;5115941;28;20119;-71
2021/11/01 01:27:59;;;;;;;22.08;4.72;;;10.40;99.90;;;;;;5111955;28;20154;-71
2021/11/01 01:30:25;;;;;;;21.65;3.90;;;10.40;99.90;;;;;;5115337;28;20139;-71
2021/11/01 01:32:51;;;;;;;19.55;5.75;;;10.40;99.90;;;;;;5115812;28;20546;-71
2021/11/01 01:35:18;;;;;;;15.55;3.40;;;10.40;99.90;;;;;;5115675;28;20036;-71
2021/11/01 01:37:44;;;;;;;28.52;5.22;;;10.30;99.90;;;;;;5116011;28;20032;-71
2021/11/01 01:40:11;;;;;;;22.52;3.85;;;10.30;99.90;;;;;;5113925;28;20048;-71
2021/11/01 01:42:39;;;;;;;18.63;3.95;;;10.30;99.90;;;;;;5115422;27;20039;-71
2021/11/01 01:45:07;;;;;;;26.92;4.00;;;10.30;99.90;;;;;;5115534;28;20123;-71
2021/11/01 01:47:33;;;;;;;23.70;4.15;;;10.30;99.90;;;;;;5114305;28;20487;-71
2021/11/01 01:49:59;;;;;;;23.80;3.65;;;10.30;99.90;;;;;;5114019;28;20044;-71
2021/11/01 01:52:25;;;;;;;23.88;4.47;;;10.30;99.90;;;;;;5115302;28;20476;-71
2021/11/01 01:54:51;;;;;;;20.38;4.18;;;10.30;99.90;;;;;;5115344;28;20035;-71
2021/11/01 01:57:16;;;;;;;27.00;6.22;;;10.30;99.90;;;;;;5113725;28;20046;-71
2021/11/01 01:59:43;;;;;;;27.33;4.05;;;10.20;99.90;;;;;;5114928;28;20475;-71
2021/11/01 02:02:09;;;;;;;20.20;3.97;;;10.30;99.90;;;;;;5113998;28;20048;-72
2021/11/01 02:04:37;;;;;;;17.75;3.75;;;10.30;99.90;;;;;;5113900;28;20040;-71
2021/11/01 02:07:17;;;;;;;17.90;3.42;;;10.20;99.90;;;;;;5115208;28;20032;-71
2021/11/01 02:09:42;;;;;;;16.05;3.45;;;10.20;99.90;;;;;;5113498;28;20395;-71
2021/11/01 02:12:18;;;;;;;22.85;4.20;;;10.20;99.90;;;;;;5113621;28;20044;-71
2021/11/01 02:14:54;;;;;;;19.30;4.28;;;10.20;99.90;;;;;;5096614;28;20044;-71
2021/11/01 02:17:26;;;;;;;21.77;3.78;;;10.20;99.90;;;;;;5114835;28;20040;-71
2021/11/01 02:19:55;;;;;;;17.98;3.72;;;10.20;99.90;;;;;;5114475;28;20043;-71
2021/11/01 02:22:34;;;;;;;14.75;3.13;;;10.20;99.90;;;;;;5114609;28;20031;-71
2021/11/01 02:25:10;;;;;;;21.92;4.28;;;10.10;99.90;;;;;;5096527;28;20050;-71
2021/11/01 02:27:38;;;;;;;19.95;3.65;;;10.10;99.90;;;;;;5114714;27;20036;-71
2021/11/01 02:30:07;;;;;;;14.95;3.85;;;10.10;99.90;;;;;;5114093;28;20483;-71
2021/11/01 02:32:35;;;;;;;15.98;3.22;;;10.10;99.90;;;;;;5114520;28;20047;-71
2021/11/01 02:35:03;;;;;;;14.75;3.55;;;10.10;99.90;;;;;;5114819;28;20031;-71
2021/11/01 02:37:28;;;;;;;15.02;2.85;;;10.00;99.90;;;;;;5113565;28;20451;-71
2021/11/01 02:39:56;;;;;;;16.73;3.67;;;10.10;99.90;;;;;;5114413;28;20085;-71
2021/11/01 02:42:26;;;;;;;22.15;5.22;;;10.00;99.90;;;;;;5114337;28;20036;-71
2021/11/01 02:45:06;;;;;;;16.08;3.20;;;10.00;99.90;;;;;;5114262;28;20488;-71
2021/11/01 02:47:31;;;;;;;12.63;3.20;;;10.00;99.90;;;;;;5114555;27;20036;-71
2021/11/01 02:49:59;;;;;;;17.25;3.78;;;10.00;99.90;;;;;;5113819;28;20039;-71
2021/11/01 02:52:29;;;;;;;11.43;3.72;;;10.00;99.90;;;;;;5114317;28;20032;-71
2021/11/01 02:54:55;;;;;;;15.80;3.42;;;10.00;99.90;;;;;;5112880;28;20156;-71
2021/11/01 02:57:21;;;;;;;16.45;3.33;;;10.00;99.90;;;;;;5114323;28;20511;-71
2021/11/01 02:59:47;;;;;;;15.60;3.38;;;9.90;99.90;;;;;;5113801;28;20040;-71
2021/11/01 03:02:13;;;;;;;19.13;3.00;;;9.90;99.90;;;;;;5113091;28;20102;-72
2021/11/01 03:04:39;;;;;;;19.42;3.38;;;9.90;99.90;;;;;;5114450;28;20050;-72
2021/11/01 03:07:06;;;;;;;20.75;4.03;;;9.90;99.90;;;;;;5113581;28;20452;-72
2021/11/01 03:09:34;;;;;;;12.43;3.38;;;9.90;99.90;;;;;;5112088;28;20518;-72
2021/11/01 03:12:04;;;;;;;14.95;3.10;;;9.90;99.90;;;;;;5114046;28;20399;-72
2021/11/01 03:14:41;;;;;;;14.73;3.63;;;9.90;99.90;;;;;;5113971;28;20062;-72
2021/11/01 03:17:09;;;;;;;23.00;4.88;;;9.90;99.90;;;;;;5113753;28;20526;-72
2021/11/01 03:19:39;;;;;;;16.48;3.38;;;9.90;99.90;;;;;;5113893;28;20135;-72
2021/11/01 03:22:06;;;;;;;18.52;4.55;;;9.80;99.90;;;;;;5113855;28;20035;-72
2021/11/01 03:24:34;;;;;;;13.85;3.17;;;9.90;99.90;;;;;;5113160;28;20368;-72
2021/11/01 03:27:04;;;;;;;18.25;3.53;;;9.90;99.90;;;;;;5114031;28;20110;-72
2021/11/01 03:29:32;;;;;;;17.70;3.83;;;9.90;99.90;;;;;;5113454;28;20035;-72
2021/11/01 03:32:01;;;;;;;20.45;2.75;;;9.90;99.90;;;;;;5113662;28;20035;-72
2021/11/01 03:34:28;;;;;;;12.13;3.05;;;9.90;99.90;;;;;;5113764;28;20042;-72
2021/11/01 03:36:56;;;;;;;15.60;2.95;;;9.90;99.90;;;;;;5113900;28;20495;-72
2021/11/01 03:39:22;;;;;;;14.25;2.90;;;9.80;99.90;;;;;;5113511;28;20084;-72
2021/11/01 03:41:48;;;;;;;16.77;3.08;;;9.80;99.90;;;;;;5113378;28;20517;-72
2021/11/01 03:44:22;;;;;;;16.48;3.45;;;9.80;99.90;;;;;;5113648;28;20050;-72
2021/11/01 03:47:00;;;;;;;18.67;3.20;;;9.80;99.90;;;;;;5113747;28;20429;-72
2021/11/01 03:49:28;;;;;;;17.23;3.85;;;9.80;99.90;;;;;;5112062;28;20548;-72
2021/11/01 03:54:28;;;;;;;14.98;2.70;;;9.70;99.90;;;;;;5112543;28;20388;-72
2021/11/01 03:56:54;;;;;;;20.90;3.20;;;9.70;99.90;;;;;;5112355;28;20084;-72
2021/11/01 03:59:20;;;;;;;15.23;3.30;;;9.60;99.90;;;;;;5113112;28;20043;-72
2021/11/01 04:01:46;;;;;;;13.13;3.05;;;9.60;99.90;;;;;;5113440;28;20096;-72
2021/11/01 04:04:13;;;;;;;17.20;2.85;;;9.60;99.90;;;;;;5113885;28;20479;-72
2021/11/01 04:06:40;;;;;;;11.13;3.25;;;9.60;99.90;;;;;;5113847;28;20043;-72
2021/11/01 04:09:06;;;;;;;19.95;3.78;;;9.60;99.90;;;;;;5111604;28;20040;-72
2021/11/01 04:11:32;;;;;;;14.00;4.15;;;9.60;99.90;;;;;;5113281;28;20036;-72
2021/11/01 04:14:01;;;;;;;18.13;3.15;;;9.60;99.90;;;;;;5113275;28;20039;-72
2021/11/01 04:16:37;;;;;;;14.80;3.80;;;9.60;99.90;;;;;;5113596;28;20421;-72
2021/11/01 04:21:46;;;;;;;10.98;3.13;;;9.60;99.90;;;;;;5115994;28;20056;-72
2021/11/01 04:24:15;;;;;;;11.55;3.47;;;9.60;99.90;;;;;;5116546;28;20111;-72
2021/11/01 04:26:43;;;;;;;19.85;4.00;;;9.60;99.90;;;;;;5117428;28;20043;-72
2021/11/01 04:29:12;;;;;;;20.08;3.63;;;9.60;99.90;;;;;;5115257;28;20088;-72
2021/11/01 04:31:41;;;;;;;16.42;3.38;;;9.50;99.90;;;;;;5117371;28;20039;-72
2021/11/01 04:34:25;;;;;;;22.90;5.60;;;9.50;99.90;;;;;;5116857;28;20043;-72
2021/11/01 04:36:53;;;;;;;12.80;2.88;;;9.50;99.90;;;;;;5117198;27;20479;-72
2021/11/01 04:39:32;;;;;;;7.80;2.83;;;9.50;99.90;;;;;;5116458;28;20126;-72
2021/11/01 04:42:30;;;;;;;14.40;2.95;;;9.50;99.90;;;;;;5117050;28;20046;-72
2021/11/01 04:53:11;;;;;;;9.63;2.67;;;9.40;99.90;;;;;;5116397;28;20072;-72
2021/11/01 04:55:38;;;;;;;13.77;3.03;;;9.40;99.90;;;;;;5115262;28;20119;-72
2021/11/01 04:58:03;;;;;;;18.13;3.03;;;9.40;99.90;;;;;;5115371;28;20039;-72
2021/11/01 05:00:30;;;;;;;9.80;2.70;;;9.30;99.90;;;;;;5116022;28;20039;-72
2021/11/01 05:03:11;;;;;;;11.98;2.78;;;9.40;99.90;;;;;;5116167;28;20051;-72
2021/11/01 05:05:37;;;;;;;11.50;2.90;;;9.30;99.90;;;;;;5116640;27;20043;-72
2021/11/01 05:08:03;;;;;;;8.43;3.08;;;9.30;99.90;;;;;;5116334;28;20063;-72
2021/11/01 05:12:58;;;;;;;12.88;2.63;;;9.30;99.90;;;;;;5115670;28;20047;-73
2021/11/01 05:15:30;;;;;;;13.48;3.22;;;9.30;99.90;;;;;;5116559;28;20032;-73
2021/11/01 05:17:59;;;;;;;11.63;2.75;;;9.30;99.90;;;;;;5116074;27;20067;-73
2021/11/01 05:20:37;;;;;;;9.65;1.98;;;9.30;99.90;;;;;;5115661;27;20052;-73
2021/11/01 05:31:00;;;;;;;11.40;2.25;;;9.20;99.90;;;;;;5114967;28;20055;-71
2021/11/01 05:35:54;;;;;;;22.45;3.65;;;9.10;99.90;;;;;;5115409;28;20044;-71
2021/11/01 05:38:20;;;;;;;12.02;1.95;;;9.10;99.90;;;;;;5115599;28;20399;-71
2021/11/01 05:40:45;;;;;;;12.88;2.78;;;9.10;99.90;;;;;;5115336;28;20046;-71
2021/11/01 05:43:14;;;;;;;12.57;3.25;;;9.10;99.90;;;;;;5115822;27;20044;-71
2021/11/01 05:45:40;;;;;;;9.77;2.47;;;9.10;99.90;;;;;;5115569;28;20122;-70
2021/11/01 05:48:06;;;;;;;18.83;2.78;;;9.10;99.90;;;;;;5115910;28;20142;-70
2021/11/01 05:50:35;;;;;;;12.90;2.45;;;9.10;99.90;;;;;;5115479;28;20039;-70
2021/11/01 05:53:03;;;;;;;9.95;2.75;;;9.10;99.90;;;;;;5114011;28;20065;-71
2021/11/01 06:00:52;;;;;;;13.85;3.03;;;9.10;99.90;;;;;;5114123;28;20047;-71
2021/11/01 06:03:22;;;;;;;12.63;2.80;;;9.10;99.90;;;;;;5097172;28;20047;-71
2021/11/01 06:13:34;;;;;;;8.25;2.42;;;9.00;99.90;;;;;;5113620;28;20040;-71
2021/11/01 06:16:02;;;;;;;14.15;2.90;;;9.00;99.90;;;;;;5114819;28;20046;-71
2021/11/01 06:18:36;;;;;;;15.35;2.80;;;9.00;99.90;;;;;;5114498;28;20076;-71
2021/11/01 06:21:04;;;;;;;7.57;1.85;;;9.00;99.90;;;;;;5113413;28;20421;-71
2021/11/01 06:23:30;;;;;;;11.35;2.58;;;9.00;99.90;;;;;;5114547;28;20058;-71
2021/11/01 06:25:56;;;;;;;9.45;2.30;;;9.00;99.90;;;;;;5113603;28;20479;-71
2021/11/01 06:28:22;;;;;;;13.38;2.65;;;9.00;99.90;;;;;;5115090;27;20039;-72
2021/11/01 06:30:53;;;;;;;12.48;2.97;;;9.00;99.90;;;;;;5114621;27;20039;-71
2021/11/01 06:39:14;;;;;;;10.45;2.42;;;9.00;99.90;;;;;;5114699;28;20119;-71
2021/11/01 06:49:57;;;;;;;13.05;2.72;;;8.80;99.90;;;;;;5114114;28;20051;-71
2021/11/01 06:55:19;;;;;;;12.52;2.70;;;8.90;99.90;;;;;;5112905;28;20039;-71
2021/11/01 07:16:48;;;;;;;21.10;3.60;;;9.10;99.90;;;;;;5112781;28;20043;-70
2021/11/01 07:19:37;;;;;;;12.68;3.40;;;9.20;99.90;;;;;;5113566;28;20081;-71
2021/11/01 08:30:06;;;;;;;15.05;4.18;;;10.10;99.90;;;;;;5117036;28;20043;-71
2021/11/01 08:48:44;;;;;;;12.23;4.32;;;10.20;99.90;;;;;;5115236;28;20043;-69
2021/11/01 09:05:05;;;;;;;9.63;3.80;;;10.30;99.90;;;;;;5116995;28;20044;-70
2021/11/01 09:10:24;;;;;;;13.18;3.72;;;10.30;99.90;;;;;;5114732;28;20048;-70
2021/11/01 09:26:27;;;;;;;13.07;3.60;;;10.60;99.90;;;;;;5116332;28;20048;-70
2021/11/01 09:29:15;;;;;;;11.30;3.65;;;10.60;99.90;;;;;;5115668;28;20039;-70
2021/11/01 09:37:27;;;;;;;11.48;3.67;;;10.70;99.90;;;;;;5116548;28;20484;-70
2021/11/01 09:42:48;;;;;;;7.35;3.28;;;10.80;99.90;;;;;;5115992;28;20047;-69
2021/11/01 09:45:15;;;;;;;8.07;3.58;;;10.80;99.90;;;;;;5115788;28;20062;-69
2021/11/01 09:47:43;;;;;;;12.15;3.15;;;10.80;99.90;;;;;;5116085;28;20073;-70
2021/11/01 09:50:10;;;;;;;9.10;3.38;;;10.90;99.90;;;;;;5113847;28;20044;-70
2021/11/01 09:52:36;;;;;;;14.10;3.78;;;10.90;99.90;;;;;;5115564;28;20043;-70
2021/11/01 09:55:19;;;;;;;11.90;3.63;;;11.00;99.90;;;;;;5115767;28;20340;-70
2021/11/01 10:00:29;;;;;;;10.77;3.20;;;11.10;99.90;;;;;;5114891;28;20157;-70
2021/11/01 10:02:55;;;;;;;9.85;3.63;;;11.10;99.90;;;;;;5115397;28;20053;-70
2021/11/01 10:05:26;;;;;;;11.05;3.20;;;11.10;99.90;;;;;;5114313;28;20043;-71
2021/11/01 10:07:52;;;;;;;10.27;2.90;;;11.20;99.90;;;;;;5115318;28;20398;-70
2021/11/01 10:10:20;;;;;;;10.05;3.28;;;11.20;99.90;;;;;;5115089;28;20051;-70
2021/11/01 10:12:48;;;;;;;8.40;3.08;;;11.20;99.90;;;;;;5114206;28;20127;-70
2021/11/01 10:18:08;;;;;;;10.63;2.92;;;11.40;99.90;;;;;;5114849;28;20036;-69
2021/11/01 10:20:39;;;;;;;7.93;2.88;;;11.40;99.90;;;;;;5113456;28;20043;-70
2021/11/01 10:23:24;;;;;;;8.45;3.35;;;11.40;99.90;;;;;;5114778;28;20040;-69
2021/11/01 10:25:51;;;;;;;9.02;2.45;;;11.50;99.90;;;;;;5114683;28;20043;-69
2021/11/01 10:28:26;;;;;;;8.38;2.83;;;11.50;99.90;;;;;;5114918;28;20047;-70
2021/11/01 10:31:07;;;;;;;12.40;2.78;;;11.40;99.90;;;;;;5113722;28;20100;-70
2021/11/01 10:33:36;;;;;;;7.43;2.90;;;11.40;99.90;;;;;;5113735;28;20096;-69
2021/11/01 10:36:02;;;;;;;11.70;3.38;;;11.40;99.90;;;;;;5113495;28;20051;-69
2021/11/01 10:38:34;;;;;;;9.98;2.95;;;11.40;99.90;;;;;;5114423;28;20059;-70
2021/11/01 10:47:09;;;;;;;8.98;2.85;;;11.50;99.90;;;;;;5114751;28;20040;-69
2021/11/01 11:25:11;;;;;;;6.70;2.58;;;11.80;99.90;;;;;;5113993;28;20596;-72
2021/11/01 11:47:47;;;;;;;3.95;1.40;;;12.10;99.90;;;;;;5114047;28;20048;-71
2021/11/01 11:50:26;;;;;;;4.93;2.25;;;12.10;99.90;;;;;;5114154;28;20036;-71
2021/11/01 11:52:52;;;;;;;6.63;1.25;;;12.20;99.90;;;;;;5114530;28;20043;-71
2021/11/01 11:55:25;;;;;;;7.50;1.42;;;12.20;99.90;;;;;;5114996;28;20040;-70
2021/11/01 11:57:58;;;;;;;8.02;1.67;;;12.30;99.90;;;;;;5113874;28;20467;-71
2021/11/01 12:00:30;;;;;;;9.77;1.58;;;12.20;99.90;;;;;;5112527;28;20039;-70
2021/11/01 12:02:57;;;;;;;4.18;1.50;;;12.10;99.90;;;;;;5112739;28;20130;-71
2021/11/01 12:06:01;;;;;;;7.25;1.30;;;12.10;99.90;;;;;;5113659;28;20050;-70
2021/11/01 12:19:15;;;;;;;10.02;2.80;;;12.40;99.90;;;;;;5111373;28;20048;-70
2021/11/01 12:21:47;;;;;;;8.20;2.65;;;12.50;99.90;;;;;;5111016;28;20040;-70
2021/11/01 12:24:21;;;;;;;15.55;1.92;;;12.60;99.90;;;;;;5112351;28;20035;-70
2021/11/01 12:26:47;;;;;;;4.82;1.48;;;12.60;99.90;;;;;;5112445;28;20032;-70
2021/11/01 12:29:14;;;;;;;4.00;1.55;;;12.60;99.90;;;;;;5112954;28;20063;-70
2021/11/01 12:31:41;;;;;;;5.60;2.03;;;12.60;99.90;;;;;;5113220;28;20144;-70
2021/11/01 12:34:19;;;;;;;7.63;1.63;;;12.60;99.90;;;;;;5113732;28;20039;-70
2021/11/01 12:37:03;;;;;;;4.13;1.30;;;12.60;99.90;;;;;;5112397;28;20032;-70
2021/11/01 12:48:07;;;;;;;7.40;1.38;;;12.80;99.90;;;;;;5116680;28;20039;-70
2021/11/01 12:58:56;;;;;;;5.93;1.80;;;12.70;99.90;;;;;;5116153;28;20035;-69
2021/11/01 13:01:24;;;;;;;4.00;1.60;;;12.70;99.90;;;;;;5115123;28;20487;-68
2021/11/01 13:04:08;;;;;;;6.25;1.60;;;12.60;99.90;;;;;;5116636;28;20032;-69
2021/11/01 13:09:09;;;;;;;6.45;1.50;;;12.70;99.90;;;;;;5115950;28;20047;-70
2021/11/01 13:19:48;;;;;;;8.07;1.45;;;12.70;99.90;;;;;;5115908;28;20384;-70
2021/11/01 13:22:37;;;;;;;3.17;1.27;;;12.60;99.90;;;;;;5116424;28;20061;-70
2021/11/01 13:25:26;;;;;;;6.20;1.40;;;12.60;99.90;;;;;;5115537;28;20096;-70
2021/11/01 13:36:27;;;;;;;4.70;1.13;;;12.60;99.90;;;;;;5115652;28;20122;-70
2021/11/01 13:38:56;;;;;;;5.25;1.67;;;12.60;99.90;;;;;;5115673;28;20043;-69
2021/11/01 13:41:28;;;;;;;6.00;1.35;;;12.60;99.90;;;;;;5115696;28;20039;-69
2021/11/01 13:44:07;;;;;;;5.45;1.63;;;12.60;99.90;;;;;;5116334;28;20039;-69
2021/11/01 13:46:33;;;;;;;8.80;1.73;;;12.60;99.90;;;;;;5114128;28;20051;-69
2021/11/01 13:48:58;;;;;;;8.63;1.60;;;12.50;99.90;;;;;;5115256;28;20047;-69
2021/11/01 13:51:29;;;;;;;4.22;1.67;;;12.50;99.90;;;;;;5114612;28;20042;-69
2021/11/01 13:54:12;;;;;;;5.53;1.52;;;12.60;99.90;;;;;;5115929;28;20062;-69
2021/11/01 13:56:43;;;;;;;4.57;1.15;;;12.70;99.90;;;;;;5106074;28;20032;-69
2021/11/01 14:10:59;;;;;;;6.60;1.30;;;12.50;99.90;;;;;;5093770;28;20469;-69
2021/11/01 15:17:29;;;;;;;5.90;1.70;;;11.80;99.90;;;;;;5034240;28;20041;-70
2021/11/01 15:20:06;;;;;;;3.83;1.40;;;11.80;99.90;;;;;;5050463;28;20094;-70
2021/11/01 15:22:53;;;;;;;3.72;1.40;;;11.70;99.90;;;;;;5075535;28;20047;-68
2021/11/01 15:25:43;;;;;;;5.43;1.55;;;11.60;99.90;;;;;;5094807;28;20076;-70
2021/11/01 15:28:27;;;;;;;6.25;1.92;;;11.50;99.90;;;;;;5093265;28;20063;-68
2021/11/01 15:31:11;;;;;;;8.02;2.55;;;11.50;99.90;;;;;;5092096;28;20454;-68
2021/11/01 16:17:02;;;;;;;6.90;1.83;;;10.90;99.90;;;;;;5110564;28;20062;-70
2021/11/01 16:19:50;;;;;;;15.45;1.88;;;10.90;99.90;;;;;;5116158;28;20120;-70
2021/11/01 16:22:18;;;;;;;6.05;2.63;;;10.90;99.90;;;;;;5115860;28;20050;-70
2021/11/01 16:24:45;;;;;;;10.57;2.05;;;10.80;99.90;;;;;;5117297;28;20092;-70
2021/11/01 16:27:14;;;;;;;4.72;1.30;;;10.90;99.90;;;;;;5115864;28;20044;-70
2021/11/01 16:30:08;;;;;;;5.05;1.83;;;10.90;99.90;;;;;;5116836;28;20058;-70
2021/11/01 16:32:42;;;;;;;4.82;1.40;;;10.90;99.90;;;;;;5117001;28;20036;-70
2021/11/01 16:35:08;;;;;;;7.18;1.90;;;10.80;99.90;;;;;;5115758;28;20036;-70
2021/11/01 16:40:05;;;;;;;6.00;1.65;;;10.70;99.90;;;;;;5116853;28;20562;-70
2021/11/01 16:42:33;;;;;;;5.75;1.77;;;10.70;99.90;;;;;;5115987;28;20112;-70
2021/11/01 16:45:44;;;;;;;6.57;1.80;;;10.70;99.90;;;;;;5110994;28;20043;-70
2021/11/01 16:47:49;;;;;;;4.65;1.48;;;10.60;99.90;;;;;;5092789;28;20127;-70
2021/11/01 16:50:16;;;;;;;6.50;2.20;;;10.60;99.90;;;;;;5106447;28;20166;-70
2021/11/01 16:52:44;;;;;;;5.20;1.65;;;10.60;99.90;;;;;;5104401;28;20043;-69
2021/11/01 16:55:20;;;;;;;7.88;1.63;;;10.60;99.90;;;;;;5096532;28;20048;-70
2021/11/01 16:57:51;;;;;;;5.38;1.58;;;10.60;99.90;;;;;;5094846;28;20464;-70
2021/11/01 17:00:29;;;;;;;4.72;1.55;;;10.50;99.90;;;;;;5095907;28;20097;-70
2021/11/01 17:24:39;;;;;;;10.00;2.38;;;10.20;99.90;;;;;;5094628;28;20079;-70
2021/11/01 17:38:48;;;;;;;5.97;2.10;;;9.90;99.90;;;;;;5094305;28;20123;-70
2021/11/01 18:24:56;;;;;;;11.60;2.65;;;9.80;99.90;;;;;;5095432;28;20040;-70
2021/11/01 18:53:13;;;;;;;6.60;2.88;;;9.90;99.90;;;;;;5092856;28;20040;-69
2021/11/01 18:55:43;;;;;;;4.23;2.30;;;9.90;99.90;;;;;;5092596;28;20044;-70
2021/11/01 18:58:12;;;;;;;10.60;3.15;;;9.80;99.90;;;;;;5094186;28;20044;-70
2021/11/01 19:00:42;;;;;;;6.53;2.88;;;9.80;99.90;;;;;;5093358;28;20040;-70
2021/11/01 19:03:13;;;;;;;8.48;2.30;;;9.80;99.90;;;;;;5094029;28;20479;-70
2021/11/01 19:13:30;;;;;;;10.93;2.50;;;9.60;99.90;;;;;;5093584;28;20043;-70
2021/11/01 20:03:28;;;;;;;5.22;2.10;;;9.40;99.90;;;;;;5116161;28;20444;-70
2021/11/01 20:06:04;;;;;;;6.03;1.98;;;9.40;99.90;;;;;;5117779;28;20032;-70
2021/11/01 20:11:25;;;;;;;6.85;2.38;;;9.30;99.90;;;;;;5115930;28;20543;-70
2021/11/01 20:14:12;;;;;;;6.72;2.45;;;9.30;99.90;;;;;;5117537;28;20062;-70
2021/11/01 21:26:53;;;;;;;6.30;1.70;;;8.80;99.90;;;;;;5094736;28;20048;-69
2021/11/01 21:29:18;;;;;;;7.60;1.88;;;8.70;99.90;;;;;;5095207;28;20119;-69
2021/11/01 21:31:44;;;;;;;5.50;2.05;;;8.70;99.90;;;;;;5094079;28;20072;-69
2021/11/01 21:34:15;;;;;;;4.10;2.08;;;8.70;99.90;;;;;;5094390;28;20044;-70
2021/11/01 21:36:41;;;;;;;4.63;1.92;;;8.70;99.90;;;;;;5095298;28;20396;-70
2021/11/01 21:39:06;;;;;;;6.00;2.05;;;8.70;99.90;;;;;;5093896;28;20040;-70
2021/11/01 21:41:32;;;;;;;3.97;1.90;;;8.70;99.90;;;;;;5094178;28;20376;-69
2021/11/01 21:43:57;;;;;;;5.18;2.15;;;8.60;99.90;;;;;;5095216;28;20036;-70
2021/11/01 21:46:23;;;;;;;3.50;2.03;;;8.60;99.90;;;;;;5095665;28;20028;-69
2021/11/01 21:48:50;;;;;;;5.13;2.80;;;8.50;99.90;;;;;;5093792;28;20370;-70
2021/11/01 21:51:17;;;;;;;3.38;1.90;;;8.50;99.90;;;;;;5095518;28;20070;-69
2021/11/01 21:53:48;;;;;;;2.97;1.80;;;8.40;99.90;;;;;;5095274;28;20032;-69
2021/11/01 21:56:15;;;;;;;3.65;2.70;;;8.40;99.90;;;;;;5093736;28;20119;-69
2021/11/01 22:01:25;;;;;;;7.13;2.38;;;8.30;99.90;;;;;;5094988;28;20458;-69
2021/11/01 22:20:03;;;;;;;7.05;2.08;;;8.20;99.90;;;;;;5093404;28;20457;-69
2021/11/01 22:41:11;;;;;;;4.25;2.20;;;8.20;99.90;;;;;;5094159;28;20070;-69
2021/11/01 22:57:08;;;;;;;7.03;2.80;;;8.10;99.90;;;;;;5092805;28;20044;-69
2021/11/01 22:59:34;;;;;;;2.75;2.10;;;8.10;99.90;;;;;;5093418;28;20495;-69
2021/11/01 23:02:00;;;;;;;6.55;2.33;;;8.10;99.90;;;;;;5092538;28;20083;-69
2021/11/01 23:31:30;;;;;;;4.78;2.90;;;8.10;99.90;;;;;;5092646;28;20134;-69
2021/11/01 23:34:05;;;;;;;7.93;3.25;;;8.00;99.90;;;;;;5092204;28;20535;-69
2021/11/01 23:36:32;;;;;;;5.00;3.08;;;8.00;99.90;;;;;;5091795;28;20048;-69
2021/11/01 23:38:58;;;;;;;6.07;3.10;;;8.00;99.90;;;;;;5092939;28;20119;-69
2021/11/01 23:41:24;;;;;;;4.38;2.78;;;8.00;99.90;;;;;;5092293;28;20460;-69
2021/11/01 23:43:51;;;;;;;5.50;3.30;;;8.00;99.90;;;;;;5092058;28;20073;-69
2021/11/01 23:46:17;;;;;;;5.60;3.65;;;8.00;99.90;;;;;;5092030;28;20110;-69
2021/11/01 23:48:43;;;;;;;5.43;3.40;;;7.90;99.90;;;;;;5092911;28;20593;-69
2021/11/01 23:51:10;;;;;;;5.05;3.47;;;7.90;99.90;;;;;;5093153;28;20479;-69
2021/11/01 23:53:44;;;;;;;9.02;3.33;;;7.80;99.90;;;;;;5093595;28;20055;-69
2021/11/01 23:56:10;;;;;;;;;;;7.80;99.90;;;;;;5093996;28;20037;-69
2021/11/01 23:58:37;;;;;;;7.65;4.35;;;7.80;99.90;;;;;;5093093;28;20256;-69
